createdAt,value
2023-05-05T00:03:37.732Z,10.49
2023-05-05T00:08:42.985Z,10.42
2023-05-05T00:13:51.000Z,10.30
2023-05-05T00:18:56.075Z,10.20
2023-05-05T00:24:01.342Z,10.04
2023-05-05T00:29:11.600Z,9.70
2023-05-05T00:34:16.782Z,9.61
2023-05-05T00:39:21.848Z,9.53
2023-05-05T00:44:41.199Z,9.35
2023-05-05T00:49:46.826Z,9.51
2023-05-05T00:54:52.121Z,9.52
2023-05-05T01:00:02.916Z,9.21
2023-05-05T01:05:09.731Z,9.25
2023-05-05T01:10:25.102Z,9.15
2023-05-05T01:15:37.124Z,9.42
2023-05-05T01:20:49.415Z,9.54
2023-05-05T01:26:24.577Z,9.38
2023-05-05T01:31:52.101Z,9.26
2023-05-05T01:37:06.532Z,9.29
2023-05-05T01:42:15.279Z,9.30
2023-05-05T01:47:25.356Z,9.23
2023-05-05T01:52:32.874Z,9.25
2023-05-05T01:57:40.370Z,9.15
2023-05-05T02:02:49.868Z,8.97
2023-05-05T02:08:00.257Z,8.79
2023-05-05T02:13:08.040Z,8.84
2023-05-05T02:18:17.580Z,8.85
2023-05-05T02:23:22.982Z,8.99
2023-05-05T02:28:36.397Z,9.00
2023-05-05T02:33:46.193Z,9.05
2023-05-05T02:38:57.868Z,9.15
2023-05-05T02:44:08.225Z,9.37
2023-05-05T02:49:18.599Z,9.50
2023-05-05T02:54:24.606Z,9.46
2023-05-05T02:59:39.376Z,9.51
2023-05-05T03:04:56.894Z,9.58
2023-05-05T03:10:09.851Z,9.56
2023-05-05T03:15:21.378Z,9.26
2023-05-05T03:20:29.798Z,9.47
2023-05-05T03:25:57.949Z,9.45
2023-05-05T03:31:11.361Z,9.35
2023-05-05T03:36:22.497Z,9.34
2023-05-05T03:41:28.797Z,9.53
2023-05-05T03:46:37.380Z,9.64
2023-05-05T03:51:47.919Z,9.63
2023-05-05T03:56:54.989Z,9.53
2023-05-05T04:02:00.478Z,9.55
2023-05-05T04:07:10.298Z,9.62
2023-05-05T04:12:17.741Z,9.72
2023-05-05T04:17:23.875Z,9.88
2023-05-05T04:22:33.797Z,9.69
2023-05-05T04:27:40.247Z,9.76
2023-05-05T04:32:46.119Z,9.86
2023-05-05T04:37:55.034Z,10.18
2023-05-05T04:43:04.083Z,10.06
2023-05-05T04:48:10.591Z,10.20
2023-05-05T04:53:23.262Z,10.42
2023-05-05T04:58:29.925Z,10.57
2023-05-05T05:03:35.523Z,10.65
2023-05-05T05:08:45.995Z,10.84
2023-05-05T05:13:53.239Z,11.07
2023-05-05T05:18:59.612Z,11.30
2023-05-05T05:24:16.670Z,11.43
2023-05-05T05:29:23.504Z,11.77
2023-05-05T05:34:30.051Z,11.72
2023-05-05T05:39:42.724Z,11.87
2023-05-05T05:44:50.372Z,13.20
2023-05-05T05:49:55.836Z,13.12
2023-05-05T05:55:08.204Z,13.33
2023-05-05T06:00:21.635Z,13.40
2023-05-05T06:05:34.758Z,13.18
2023-05-05T06:10:46.361Z,13.18
2023-05-05T06:15:55.091Z,13.92
2023-05-05T06:21:03.585Z,15.88
2023-05-05T06:26:14.727Z,14.54
2023-05-05T06:31:22.282Z,14.86
2023-05-05T06:36:28.303Z,14.99
2023-05-05T06:41:36.425Z,15.75
2023-05-05T06:46:45.003Z,16.41
2023-05-05T06:51:50.012Z,16.78
2023-05-05T06:57:00.820Z,17.48
2023-05-05T07:02:06.817Z,18.14
2023-05-05T07:07:12.142Z,18.72
2023-05-05T07:12:22.709Z,17.82
2023-05-05T07:17:27.979Z,17.85
2023-05-05T07:22:34.999Z,18.36
2023-05-05T07:27:45.201Z,17.30
2023-05-05T07:32:50.782Z,17.72
2023-05-05T07:37:56.590Z,17.85
2023-05-05T07:43:05.488Z,18.44
2023-05-05T07:48:11.684Z,18.18
2023-05-05T07:53:20.793Z,18.52
2023-05-05T07:58:28.879Z,19.21
2023-05-05T08:03:34.412Z,19.57
2023-05-05T08:08:42.337Z,19.61
2023-05-05T08:13:51.114Z,19.34
2023-05-05T08:18:56.409Z,19.44
2023-05-05T08:24:03.868Z,20.00
2023-05-05T08:29:11.773Z,20.06
2023-05-05T08:34:17.461Z,20.56
2023-05-05T08:39:23.162Z,20.02
2023-05-05T08:44:31.575Z,19.83
2023-05-05T08:49:47.762Z,20.54
2023-05-05T08:55:00.614Z,20.50
2023-05-05T09:00:12.516Z,20.95
2023-05-05T09:05:19.541Z,20.77
2023-05-05T09:10:24.913Z,21.12
2023-05-05T09:15:33.660Z,20.55
2023-05-05T09:20:43.083Z,20.43
2023-05-05T09:25:51.942Z,20.84
2023-05-05T09:31:01.364Z,20.82
2023-05-05T09:36:09.089Z,21.40
2023-05-05T09:41:15.630Z,21.55
2023-05-05T09:46:23.620Z,20.85
2023-05-05T09:51:34.871Z,21.72
2023-05-05T09:56:44.422Z,22.05
2023-05-05T10:01:54.822Z,21.92
2023-05-05T10:07:02.161Z,21.47
2023-05-05T10:12:11.286Z,21.51
2023-05-05T10:17:23.860Z,22.49
2023-05-05T10:22:31.797Z,21.80
2023-05-05T10:27:46.356Z,21.97
2023-05-05T10:33:08.293Z,22.19
2023-05-05T10:38:26.933Z,21.43
2023-05-05T10:43:33.715Z,21.62
2023-05-05T10:48:58.053Z,22.80
2023-05-05T10:54:11.208Z,22.28
2023-05-05T10:59:46.330Z,22.22
2023-05-05T11:05:18.244Z,22.11
2023-05-05T11:10:25.952Z,22.49
2023-05-05T11:15:40.767Z,22.50
2023-05-05T11:21:16.085Z,22.44
2023-05-05T11:26:42.542Z,22.48
2023-05-05T11:32:05.767Z,22.54
2023-05-05T11:37:15.362Z,22.69
2023-05-05T11:42:30.413Z,22.01
2023-05-05T11:47:36.627Z,22.82
2023-05-05T11:52:48.809Z,23.55
2023-05-05T11:57:55.625Z,22.77
2023-05-05T12:03:07.682Z,22.80
2023-05-05T12:08:17.204Z,23.79
2023-05-05T12:13:26.080Z,24.37
2023-05-05T12:18:39.141Z,23.60
2023-05-05T12:23:48.754Z,22.30
2023-05-05T12:28:53.889Z,23.23
2023-05-05T12:33:59.564Z,23.25
2023-05-05T12:39:08.420Z,23.37
2023-05-05T12:44:19.625Z,23.86
2023-05-05T12:49:32.420Z,23.07
2023-05-05T12:54:57.166Z,22.65
2023-05-05T13:00:07.820Z,22.62
2023-05-05T13:05:13.274Z,22.78
2023-05-05T13:10:21.134Z,22.78
2023-05-05T13:15:28.383Z,23.49
2023-05-05T13:20:33.665Z,22.38
2023-05-05T13:25:44.579Z,22.43
2023-05-05T13:30:49.642Z,22.46
2023-05-05T13:35:55.098Z,22.96
2023-05-05T13:41:04.252Z,23.19
2023-05-05T13:46:20.088Z,23.25
2023-05-05T13:51:26.073Z,23.17
2023-05-05T13:56:36.304Z,22.53
2023-05-05T14:01:44.082Z,22.22
2023-05-05T14:06:58.871Z,22.37
2023-05-05T14:12:06.899Z,22.02
2023-05-05T14:17:12.015Z,22.04
2023-05-05T14:22:17.149Z,22.31
2023-05-05T14:27:25.075Z,22.71
2023-05-05T14:32:30.277Z,23.20
2023-05-05T14:37:37.954Z,22.78
2023-05-05T14:42:46.718Z,22.82
2023-05-05T14:47:52.061Z,22.39
2023-05-05T14:52:57.331Z,22.60
2023-05-05T14:58:07.232Z,22.42
2023-05-05T15:03:12.532Z,22.46
2023-05-05T15:08:19.492Z,22.49
2023-05-05T15:13:27.305Z,22.44
2023-05-05T15:18:32.390Z,22.31
2023-05-05T15:23:37.753Z,22.51
2023-05-05T15:28:46.544Z,22.12
2023-05-05T15:33:52.521Z,22.25
2023-05-05T15:38:57.587Z,22.04
2023-05-05T15:44:08.737Z,22.06
2023-05-05T15:49:13.856Z,21.91
2023-05-05T15:54:19.063Z,22.13
2023-05-05T15:59:29.038Z,21.83
2023-05-05T16:04:34.322Z,22.10
2023-05-05T16:09:41.941Z,22.11
2023-05-05T16:14:49.710Z,21.80
2023-05-05T16:19:54.885Z,21.71
2023-05-05T16:25:00.148Z,21.47
2023-05-05T16:30:09.288Z,21.41
2023-05-05T16:35:14.762Z,21.47
2023-05-05T16:40:19.835Z,21.47
2023-05-05T16:45:27.673Z,21.23
2023-05-05T16:50:32.677Z,21.29
2023-05-05T16:55:37.911Z,21.03
2023-05-05T17:00:47.094Z,21.06
2023-05-05T17:05:53.025Z,20.81
2023-05-05T17:10:58.194Z,20.84
2023-05-05T17:16:06.179Z,20.62
2023-05-05T17:21:14.101Z,20.62
2023-05-05T17:26:19.535Z,20.25
2023-05-05T17:31:27.515Z,19.94
2023-05-05T17:36:33.892Z,19.69
2023-05-05T17:41:39.023Z,19.44
2023-05-05T17:46:46.870Z,19.28
2023-05-05T17:51:52.003Z,19.18
2023-05-05T17:56:57.640Z,19.19
2023-05-05T18:02:07.590Z,19.01
2023-05-05T18:07:14.850Z,18.85
2023-05-05T18:12:19.912Z,18.63
2023-05-05T18:17:29.459Z,18.53
2023-05-05T18:22:34.555Z,18.62
2023-05-05T18:27:44.108Z,18.67
2023-05-05T18:32:55.868Z,18.54
2023-05-05T18:38:01.265Z,18.46
2023-05-05T18:43:06.945Z,18.40
2023-05-05T18:48:14.830Z,18.46
2023-05-05T18:53:22.799Z,18.28
2023-05-05T18:58:30.737Z,18.21
2023-05-05T19:03:38.819Z,18.12
2023-05-05T19:08:47.292Z,18.09
2023-05-05T19:13:55.999Z,17.91
2023-05-05T19:19:03.691Z,17.89
2023-05-05T19:24:15.085Z,17.59
2023-05-05T19:29:21.938Z,17.65
2023-05-05T19:34:30.475Z,17.64
2023-05-05T19:39:36.209Z,17.60
2023-05-05T19:44:41.480Z,17.48
2023-05-05T19:49:49.216Z,17.51
2023-05-05T19:54:55.027Z,17.26
2023-05-05T20:00:02.269Z,17.31
2023-05-05T20:05:14.174Z,17.26
2023-05-05T20:10:19.608Z,17.07
2023-05-05T20:15:31.295Z,16.95
2023-05-05T20:20:39.827Z,17.03
2023-05-05T20:25:45.082Z,17.01
2023-05-05T20:30:50.412Z,16.98
2023-05-05T20:35:59.765Z,16.75
2023-05-05T20:41:04.899Z,16.69
2023-05-05T20:46:13.425Z,16.64
2023-05-05T20:51:22.388Z,16.47
2023-05-05T20:56:27.602Z,16.35
2023-05-05T21:01:34.774Z,16.25
2023-05-05T21:06:43.922Z,16.21
2023-05-05T21:11:48.957Z,16.16
2023-05-05T21:16:56.070Z,16.15
2023-05-05T21:22:04.582Z,15.98
2023-05-05T21:27:11.843Z,15.95
2023-05-05T21:32:17.720Z,15.89
2023-05-05T21:37:25.883Z,15.81
2023-05-05T21:42:32.989Z,15.89
2023-05-05T21:47:38.657Z,15.83
2023-05-05T21:52:46.723Z,15.76
2023-05-05T21:57:51.813Z,15.68
2023-05-05T22:02:57.078Z,15.49
2023-05-05T22:08:04.980Z,15.44
2023-05-05T22:13:10.757Z,15.33
2023-05-05T22:18:15.972Z,15.28
2023-05-05T22:23:23.708Z,15.16
2023-05-05T22:28:29.989Z,15.11
2023-05-05T22:33:36.557Z,15.19
2023-05-05T22:38:44.646Z,15.07
2023-05-05T22:43:49.929Z,14.98
2023-05-05T22:48:55.642Z,14.97
2023-05-05T22:54:03.590Z,15.05
2023-05-05T22:59:08.648Z,15.25
2023-05-05T23:04:14.038Z,15.45
2023-05-05T23:09:21.905Z,15.35
2023-05-05T23:14:27.265Z,15.49
2023-05-05T23:19:32.941Z,15.37
2023-05-05T23:24:40.787Z,15.57
2023-05-05T23:29:45.835Z,15.53
2023-05-05T23:34:51.233Z,15.78
2023-05-05T23:39:59.695Z,15.69
2023-05-05T23:45:04.962Z,15.14
2023-05-05T23:50:12.343Z,14.64
2023-05-05T23:55:20.400Z,14.57
